New Weston, Ohio
Current Conditions -  °F | °C
As of 11:15 PM on Friday 31 Oct 2014 (Local Time) from KVES Reporting Station
Light Snow Light Snow  
Wind Chill: 20°   Ceiling: 1000
Heat Index: 32°   Visibility: 4mi
Dew Point: 32°   Wind: 21mph
Humidity: 100%   Direction: 350°N
Pressure: 30.05"   Gusts: 30mph
Location:  40.34°N, 84.64°W
Report Text: KVES 010315Z AUTO 35018G26KT 4SM -SN OVC010 00/00 A3005 RMK AO2
Loading
Personal Weather Stations






























Interactive Weather Map
Tropical Storm Tracking
New forecast layout! Learn more

10-Day Weather Forecast

Advertisements
Track Severe Weather on mobile